Time;durP1;ratioP1;P1;durP2;ratioP2;P2;SDS_P1;SDS_P2;PMS_P1;PMS_P2;Temp;Humidity;BMP_temperature;BMP_pressure;BME280_temperature;BME280_humidity;BME280_pressure;Samples;Min_cycle;Max_cycle;Signal;HPM_P1;HPM_P2
2022/05/15 00:02:37;;;;;;;9.25;3.47;;;;;;;;;;4943260;28;20041;-67
2022/05/15 00:05:02;;;;;;;6.60;3.92;;;;;;;;;;4943293;28;20472;-67
2022/05/15 00:07:28;;;;;;;7.57;4.53;;;;;;;;;;4942823;28;20459;-67
2022/05/15 00:09:54;;;;;;;9.93;3.95;;;;;;;;;;4943175;28;20049;-67
2022/05/15 00:12:20;;;;;;;4.68;3.53;;;;;;;;;;4942663;28;20043;-67
2022/05/15 00:14:47;;;;;;;6.22;3.80;;;;;;;;;;4942920;28;20035;-67
2022/05/15 00:17:14;;;;;;;9.65;4.25;;;;;;;;;;4944033;28;20078;-67
2022/05/15 00:19:40;;;;;;;6.65;4.53;;;;;;;;;;4943459;28;20034;-67
2022/05/15 00:22:07;;;;;;;6.97;4.60;;;;;;;;;;4943043;28;20540;-67
2022/05/15 00:24:33;;;;;;;13.13;4.40;;;;;;;;;;4944816;28;20126;-67
2022/05/15 00:26:59;;;;;;;4.90;3.97;;;;;;;;;;4948032;28;20031;-67
2022/05/15 00:29:24;;;;;;;6.43;4.35;;;;;;;;;;4943394;28;20850;-67
2022/05/15 00:31:50;;;;;;;5.55;4.75;;;;;;;;;;4926976;28;20122;-67
2022/05/15 00:34:15;;;;;;;10.35;4.75;;;;;;;;;;4925460;28;20049;-67
2022/05/15 00:36:42;;;;;;;14.70;4.90;;;;;;;;;;4950519;28;20121;-68
2022/05/15 00:39:08;;;;;;;7.18;4.75;;;;;;;;;;4925775;28;20079;-68
2022/05/15 00:41:34;;;;;;;6.15;5.00;;;;;;;;;;4946047;28;20400;-68
2022/05/15 00:44:00;;;;;;;8.52;4.50;;;;;;;;;;4929312;28;20035;-67
2022/05/15 00:46:32;;;;;;;8.38;5.03;;;;;;;;;;4947119;28;20035;-68
2022/05/15 00:49:00;;;;;;;6.22;4.47;;;;;;;;;;4946626;28;20086;-68
2022/05/15 00:51:32;;;;;;;7.50;5.13;;;;;;;;;;4937543;28;20046;-67
2022/05/15 00:54:03;;;;;;;;;;;;;;;;;;4946883;28;20038;-68
2022/05/15 00:56:33;;;;;;;7.57;4.88;;;;;;;;;;4945230;28;20007;-68
2022/05/15 00:59:11;;;;;;;8.43;4.70;;;;;;;;;;4929507;28;20046;-67
2022/05/15 01:01:36;;;;;;;11.40;4.80;;;;;;;;;;4930117;28;20150;-67
2022/05/15 01:04:03;;;;;;;10.90;5.53;;;;;;;;;;4946239;28;20200;-67
2022/05/15 01:06:29;;;;;;;6.72;5.10;;;;;;;;;;4927762;28;20047;-67
2022/05/15 01:08:55;;;;;;;9.27;5.00;;;;;;;;;;4954470;28;20030;-67
2022/05/15 01:11:22;;;;;;;5.80;4.30;;;;;;;;;;4946438;28;20130;-67
2022/05/15 01:13:50;;;;;;;7.72;4.35;;;;;;;;;;4926857;28;20086;-67
2022/05/15 01:16:20;;;;;;;7.25;4.35;;;;;;;;;;4944821;28;20086;-67
2022/05/15 01:18:47;;;;;;;5.22;4.32;;;;;;;;;;4932666;28;20126;-68
2022/05/15 01:21:25;;;;;;;8.57;4.55;;;;;;;;;;4940456;28;20043;-67
2022/05/15 01:23:53;;;;;;;8.43;4.57;;;;;;;;;;4923296;28;20043;-68
2022/05/15 01:26:20;;;;;;;6.57;4.53;;;;;;;;;;4945359;28;20279;-67
2022/05/15 01:28:46;;;;;;;8.00;4.35;;;;;;;;;;4951130;28;20415;-67
2022/05/15 01:31:13;;;;;;;7.47;4.78;;;;;;;;;;4959985;28;20035;-68
2022/05/15 01:33:38;;;;;;;7.53;3.72;;;;;;;;;;4952354;28;20039;-68
2022/05/15 01:36:05;;;;;;;6.32;5.00;;;;;;;;;;4928250;28;20035;-67
2022/05/15 01:38:31;;;;;;;7.00;4.70;;;;;;;;;;4928676;28;20152;-67
2022/05/15 01:40:58;;;;;;;6.35;4.72;;;;;;;;;;4941507;28;20573;-67
2022/05/15 01:43:24;;;;;;;10.18;4.90;;;;;;;;;;4938068;28;20055;-67
2022/05/15 01:45:51;;;;;;;7.88;5.35;;;;;;;;;;4929039;28;20114;-67
2022/05/15 01:48:16;;;;;;;7.68;6.18;;;;;;;;;;4946039;28;20043;-67
2022/05/15 01:50:42;;;;;;;7.82;5.93;;;;;;;;;;4930798;28;20026;-67
2022/05/15 01:53:09;;;;;;;12.50;5.90;;;;;;;;;;4956018;28;20042;-67
2022/05/15 01:55:35;;;;;;;9.70;5.57;;;;;;;;;;4928152;28;20035;-67
2022/05/15 01:58:01;;;;;;;8.45;5.88;;;;;;;;;;4945126;28;20853;-67
2022/05/15 02:00:27;;;;;;;8.38;5.75;;;;;;;;;;4929531;28;20121;-67
2022/05/15 02:02:53;;;;;;;8.15;5.40;;;;;;;;;;4932597;28;20039;-68
2022/05/15 02:05:20;;;;;;;15.20;5.22;;;;;;;;;;4954171;28;20187;-67
2022/05/15 02:07:48;;;;;;;8.50;5.93;;;;;;;;;;4927813;28;20038;-67
2022/05/15 02:10:15;;;;;;;7.20;5.38;;;;;;;;;;4928011;28;20078;-68
2022/05/15 02:12:41;;;;;;;7.20;5.57;;;;;;;;;;4931093;28;20026;-67
2022/05/15 02:15:07;;;;;;;8.23;5.10;;;;;;;;;;4956104;28;20046;-67
2022/05/15 02:17:33;;;;;;;7.35;5.18;;;;;;;;;;4951908;28;20050;-67
2022/05/15 02:19:59;;;;;;;11.05;7.78;;;;;;;;;;4927676;28;20039;-67
2022/05/15 02:22:25;;;;;;;25.48;12.98;;;;;;;;;;4927892;28;20090;-67
2022/05/15 02:24:51;;;;;;;23.48;11.95;;;;;;;;;;4931887;28;20036;-67
2022/05/15 02:27:17;;;;;;;12.55;8.45;;;;;;;;;;4930065;28;20035;-67
2022/05/15 02:29:43;;;;;;;9.35;6.70;;;;;;;;;;4927992;28;20071;-67
2022/05/15 02:32:08;;;;;;;9.73;5.82;;;;;;;;;;4946101;28;20567;-67
2022/05/15 02:34:36;;;;;;;4.93;4.43;;;;;;;;;;4942156;28;20078;-67
2022/05/15 02:37:02;;;;;;;8.73;5.18;;;;;;;;;;4927383;28;20031;-67
2022/05/15 02:39:28;;;;;;;9.40;5.88;;;;;;;;;;4927582;28;20449;-67
2022/05/15 02:41:53;;;;;;;6.97;5.50;;;;;;;;;;4927922;28;20027;-67
2022/05/15 02:44:20;;;;;;;11.23;5.55;;;;;;;;;;4944317;28;20098;-67
2022/05/15 02:46:45;;;;;;;10.48;6.03;;;;;;;;;;4943886;28;20031;-67
2022/05/15 02:51:56;;;;;;;14.90;6.80;;;;;;;;;;4927375;28;20035;-67
2022/05/15 02:54:21;;;;;;;17.48;7.00;;;;;;;;;;4927271;28;20035;-67
2022/05/15 02:56:47;;;;;;;13.60;7.03;;;;;;;;;;4943555;28;20041;-67
2022/05/15 02:59:13;;;;;;;10.27;6.25;;;;;;;;;;4943257;28;20079;-67
2022/05/15 03:01:38;;;;;;;11.40;6.05;;;;;;;;;;4927976;28;20028;-67
2022/05/15 03:04:05;;;;;;;7.55;5.82;;;;;;;;;;4926285;28;20082;-67
2022/05/15 03:06:31;;;;;;;10.20;5.93;;;;;;;;;;4926616;28;20503;-67
2022/05/15 03:08:57;;;;;;;7.53;5.65;;;;;;;;;;4942339;28;20035;-67
2022/05/15 03:11:23;;;;;;;6.50;4.90;;;;;;;;;;4944351;28;20038;-67
2022/05/15 03:13:49;;;;;;;9.05;5.40;;;;;;;;;;4926832;28;20918;-68
2022/05/15 03:16:16;;;;;;;7.57;5.13;;;;;;;;;;4927551;28;20039;-68
2022/05/15 03:18:47;;;;;;;9.30;4.82;;;;;;;;;;4943866;28;20031;-68
2022/05/15 03:21:28;;;;;;;7.35;5.28;;;;;;;;;;4944167;28;20488;-67
2022/05/15 03:23:57;;;;;;;6.33;5.30;;;;;;;;;;4942320;28;20035;-67
2022/05/15 03:26:23;;;;;;;7.55;5.00;;;;;;;;;;4945514;28;20314;-67
2022/05/15 03:28:48;;;;;;;9.77;5.30;;;;;;;;;;4953477;28;20142;-67
2022/05/15 03:31:14;;;;;;;8.02;5.28;;;;;;;;;;4928776;28;20680;-67
2022/05/15 03:33:39;;;;;;;7.60;4.72;;;;;;;;;;4940804;28;20492;-67
2022/05/15 03:36:10;;;;;;;8.73;4.72;;;;;;;;;;4950981;28;20082;-67
2022/05/15 03:38:43;;;;;;;7.55;5.47;;;;;;;;;;4943887;28;20046;-67
2022/05/15 03:41:09;;;;;;;8.93;5.10;;;;;;;;;;4909994;28;20042;-67
2022/05/15 03:43:35;;;;;;;6.60;5.22;;;;;;;;;;4926257;28;20043;-68
2022/05/15 03:46:03;;;;;;;7.03;4.95;;;;;;;;;;4927198;28;20035;-67
2022/05/15 03:48:29;;;;;;;8.18;4.90;;;;;;;;;;4926389;28;21155;-67
2022/05/15 03:50:54;;;;;;;6.40;5.07;;;;;;;;;;4926576;28;20039;-67
2022/05/15 03:53:20;;;;;;;6.50;5.30;;;;;;;;;;4941101;28;20527;-67
2022/05/15 03:55:46;;;;;;;7.45;4.93;;;;;;;;;;4926165;28;20038;-67
2022/05/15 03:58:11;;;;;;;8.02;5.72;;;;;;;;;;4925671;28;20150;-67
2022/05/15 04:00:37;;;;;;;6.63;5.45;;;;;;;;;;4944967;28;20027;-67
2022/05/15 04:03:03;;;;;;;7.40;5.50;;;;;;;;;;4943259;28;20437;-67
2022/05/15 04:05:29;;;;;;;17.52;6.05;;;;;;;;;;4943454;28;20555;-67
2022/05/15 04:07:56;;;;;;;9.93;5.15;;;;;;;;;;4942682;28;20038;-67
2022/05/15 04:10:23;;;;;;;9.88;5.32;;;;;;;;;;4925704;28;20062;-67
2022/05/15 04:12:48;;;;;;;7.22;5.22;;;;;;;;;;4926134;28;20122;-67
2022/05/15 04:15:14;;;;;;;8.27;5.07;;;;;;;;;;4941554;28;20023;-68
2022/05/15 04:17:42;;;;;;;8.02;5.25;;;;;;;;;;4942583;28;20041;-68
2022/05/15 04:20:08;;;;;;;8.85;5.13;;;;;;;;;;4926324;28;20067;-67
2022/05/15 04:22:34;;;;;;;9.70;4.82;;;;;;;;;;4925773;28;20117;-67
2022/05/15 04:24:59;;;;;;;7.70;5.38;;;;;;;;;;4925177;28;20160;-67
2022/05/15 04:27:25;;;;;;;10.07;5.80;;;;;;;;;;4925248;28;20190;-67
2022/05/15 04:29:52;;;;;;;7.45;5.28;;;;;;;;;;4926165;28;20042;-67
2022/05/15 04:32:17;;;;;;;7.72;5.15;;;;;;;;;;4927039;28;20047;-67
2022/05/15 04:34:43;;;;;;;6.93;5.15;;;;;;;;;;4925454;28;20039;-68
2022/05/15 04:37:08;;;;;;;6.32;4.82;;;;;;;;;;4941857;28;20039;-67
2022/05/15 04:39:34;;;;;;;8.50;4.93;;;;;;;;;;4942665;28;20098;-67
2022/05/15 04:42:00;;;;;;;8.27;5.75;;;;;;;;;;4943003;28;20043;-67
2022/05/15 04:44:26;;;;;;;8.18;5.07;;;;;;;;;;4942549;28;20030;-67
2022/05/15 04:46:51;;;;;;;11.68;5.07;;;;;;;;;;4943633;28;20389;-67
2022/05/15 04:49:17;;;;;;;8.20;5.30;;;;;;;;;;4942666;28;20174;-67
2022/05/15 04:51:43;;;;;;;7.38;4.63;;;;;;;;;;4942966;28;20038;-67
2022/05/15 04:54:08;;;;;;;9.43;5.82;;;;;;;;;;4942406;28;20035;-67
2022/05/15 04:56:34;;;;;;;5.32;4.70;;;;;;;;;;4942438;28;20075;-67
2022/05/15 04:58:59;;;;;;;8.55;5.50;;;;;;;;;;4942130;28;20090;-67
2022/05/15 05:01:25;;;;;;;5.97;5.07;;;;;;;;;;4944283;28;20043;-68
2022/05/15 05:03:55;;;;;;;8.05;4.70;;;;;;;;;;4942474;28;20043;-68
2022/05/15 05:06:22;;;;;;;4.28;3.88;;;;;;;;;;4941983;28;20035;-67
2022/05/15 05:08:49;;;;;;;4.32;3.67;;;;;;;;;;4946449;28;20429;-68
2022/05/15 05:11:15;;;;;;;5.40;4.38;;;;;;;;;;4953759;28;20141;-68
2022/05/15 05:13:40;;;;;;;7.03;4.72;;;;;;;;;;4942366;28;20117;-68
2022/05/15 05:16:05;;;;;;;5.28;3.97;;;;;;;;;;4944348;28;21137;-68
2022/05/15 05:18:31;;;;;;;4.85;3.95;;;;;;;;;;4941830;28;20137;-68
2022/05/15 05:20:57;;;;;;;4.93;3.80;;;;;;;;;;4942036;28;20031;-68
2022/05/15 05:23:22;;;;;;;5.38;3.50;;;;;;;;;;4942064;28;20896;-68
2022/05/15 05:25:47;;;;;;;9.70;4.00;;;;;;;;;;4948981;28;20046;-68
2022/05/15 05:28:15;;;;;;;5.00;3.50;;;;;;;;;;4950840;28;20035;-67
2022/05/15 05:30:40;;;;;;;5.07;4.05;;;;;;;;;;4951060;28;20058;-68
2022/05/15 05:33:06;;;;;;;5.68;3.17;;;;;;;;;;4936797;28;20070;-68
2022/05/15 05:35:32;;;;;;;9.70;3.63;;;;;;;;;;4950568;28;20043;-68
2022/05/15 05:37:57;;;;;;;5.20;3.33;;;;;;;;;;4953717;28;20169;-68
2022/05/15 05:40:23;;;;;;;3.22;2.92;;;;;;;;;;4945478;28;20039;-69
2022/05/15 05:42:48;;;;;;;7.05;3.58;;;;;;;;;;4945737;28;20787;-68
2022/05/15 05:45:14;;;;;;;4.50;3.58;;;;;;;;;;4948812;28;20098;-69
2022/05/15 05:47:39;;;;;;;8.98;3.25;;;;;;;;;;4943811;28;20047;-69
2022/05/15 05:50:10;;;;;;;7.20;3.40;;;;;;;;;;4944070;28;20029;-69
2022/05/15 05:52:38;;;;;;;7.00;3.30;;;;;;;;;;4943523;28;20556;-69
2022/05/15 05:55:05;;;;;;;4.85;3.20;;;;;;;;;;4943696;28;20075;-68
2022/05/15 05:57:31;;;;;;;3.58;3.08;;;;;;;;;;4943238;28;20035;-69
2022/05/15 05:59:56;;;;;;;4.45;3.05;;;;;;;;;;4943785;28;20047;-68
2022/05/15 06:02:22;;;;;;;12.70;3.80;;;;;;;;;;4946254;28;20046;-68
2022/05/15 06:04:50;;;;;;;4.93;3.13;;;;;;;;;;4952864;28;20039;-68
2022/05/15 06:07:22;;;;;;;6.05;3.45;;;;;;;;;;4944676;28;20035;-68
2022/05/15 06:09:50;;;;;;;7.65;3.28;;;;;;;;;;4945441;28;20424;-68
2022/05/15 06:12:18;;;;;;;4.90;3.30;;;;;;;;;;4945172;28;20046;-68
2022/05/15 06:14:44;;;;;;;4.20;3.58;;;;;;;;;;4944468;28;20031;-69
2022/05/15 06:17:10;;;;;;;4.65;3.05;;;;;;;;;;4953718;28;20054;-69
2022/05/15 06:19:36;;;;;;;9.40;3.40;;;;;;;;;;4944939;28;20038;-69
2022/05/15 06:22:02;;;;;;;5.32;3.20;;;;;;;;;;4946163;28;20139;-69
2022/05/15 06:24:27;;;;;;;5.20;3.63;;;;;;;;;;4944817;28;20431;-69
2022/05/15 06:26:54;;;;;;;5.90;3.60;;;;;;;;;;4947854;28;20042;-69
2022/05/15 06:29:20;;;;;;;5.18;3.70;;;;;;;;;;4954174;28;20420;-69
2022/05/15 06:31:48;;;;;;;6.82;3.45;;;;;;;;;;4946422;28;20067;-68
2022/05/15 06:34:14;;;;;;;6.45;3.42;;;;;;;;;;4941674;28;20039;-69
2022/05/15 06:36:41;;;;;;;7.45;3.65;;;;;;;;;;4943068;28;20039;-69
2022/05/15 06:39:06;;;;;;;6.03;3.60;;;;;;;;;;4943469;28;20369;-68
2022/05/15 06:41:32;;;;;;;5.63;3.47;;;;;;;;;;4949019;28;20102;-69
2022/05/15 06:43:58;;;;;;;5.82;3.38;;;;;;;;;;4952468;28;20567;-68
2022/05/15 06:46:23;;;;;;;5.68;3.83;;;;;;;;;;4953388;28;20030;-68
2022/05/15 06:48:49;;;;;;;4.90;3.60;;;;;;;;;;4952172;28;20133;-68
2022/05/15 06:51:16;;;;;;;4.63;3.38;;;;;;;;;;4954844;28;20049;-69
2022/05/15 06:53:46;;;;;;;7.05;3.50;;;;;;;;;;4945946;28;20027;-68
2022/05/15 06:58:56;;;;;;;7.25;3.72;;;;;;;;;;4942363;28;20126;-69
2022/05/15 07:01:22;;;;;;;4.45;3.63;;;;;;;;;;4941883;28;20114;-68
2022/05/15 07:03:47;;;;;;;5.68;3.85;;;;;;;;;;4945116;28;20558;-68
2022/05/15 07:06:13;;;;;;;4.63;3.90;;;;;;;;;;4943987;28;20042;-69
2022/05/15 07:08:39;;;;;;;7.78;4.00;;;;;;;;;;4943485;28;20049;-68
2022/05/15 07:11:05;;;;;;;5.35;4.10;;;;;;;;;;4948506;28;20922;-69
2022/05/15 07:13:32;;;;;;;6.60;3.90;;;;;;;;;;4949579;28;20035;-68
2022/05/15 07:15:58;;;;;;;8.50;3.85;;;;;;;;;;4951751;28;20101;-69
2022/05/15 07:18:24;;;;;;;6.75;3.70;;;;;;;;;;4949658;28;20058;-69
2022/05/15 07:20:51;;;;;;;6.15;3.70;;;;;;;;;;4954047;28;20062;-69
2022/05/15 07:23:17;;;;;;;4.93;4.00;;;;;;;;;;4952340;28;20067;-68
2022/05/15 07:25:43;;;;;;;6.50;3.90;;;;;;;;;;4954239;28;20035;-68
2022/05/15 07:28:09;;;;;;;4.18;3.67;;;;;;;;;;4942909;28;20058;-69
2022/05/15 07:30:34;;;;;;;6.15;3.70;;;;;;;;;;4945239;28;20031;-69
2022/05/15 07:33:00;;;;;;;7.50;3.80;;;;;;;;;;4951420;28;20078;-69
2022/05/15 07:35:26;;;;;;;6.00;3.78;;;;;;;;;;4943733;28;20496;-69
2022/05/15 07:37:52;;;;;;;3.67;3.25;;;;;;;;;;4943374;28;20031;-69
2022/05/15 07:40:18;;;;;;;10.23;3.53;;;;;;;;;;4943561;28;20047;-69
2022/05/15 07:42:43;;;;;;;5.55;4.07;;;;;;;;;;4945488;28;20051;-69
2022/05/15 07:45:10;;;;;;;4.50;3.38;;;;;;;;;;4945546;28;20043;-69
2022/05/15 07:47:36;;;;;;;5.32;3.72;;;;;;;;;;4926385;28;20047;-69
2022/05/15 07:50:02;;;;;;;5.05;3.60;;;;;;;;;;4950760;28;20427;-68
2022/05/15 07:52:27;;;;;;;4.65;3.28;;;;;;;;;;4944102;28;20059;-68
2022/05/15 07:54:53;;;;;;;6.53;3.90;;;;;;;;;;4942098;28;20436;-68
2022/05/15 07:57:18;;;;;;;4.13;3.70;;;;;;;;;;4943033;28;20081;-68
2022/05/15 07:59:44;;;;;;;5.70;3.47;;;;;;;;;;4942612;28;20062;-71
2022/05/15 08:02:09;;;;;;;7.75;3.42;;;;;;;;;;4953087;28;20147;-68
2022/05/15 08:10:05;;;;;;;5.70;4.20;;;;;;;;;;4950703;28;20042;-69
2022/05/15 08:12:30;;;;;;;4.10;3.40;;;;;;;;;;4952350;28;21159;-69
2022/05/15 08:14:55;;;;;;;5.95;4.20;;;;;;;;;;4947797;28;20049;-69
2022/05/15 08:17:21;;;;;;;7.15;3.60;;;;;;;;;;4947891;28;20038;-69
2022/05/15 08:25:19;;;;;;;4.90;3.45;;;;;;;;;;4941905;28;20050;-70
2022/05/15 08:27:45;;;;;;;3.88;2.85;;;;;;;;;;4945417;28;20388;-70
2022/05/15 08:30:11;;;;;;;5.03;2.65;;;;;;;;;;4946046;28;20492;-69
2022/05/15 08:32:36;;;;;;;4.93;2.92;;;;;;;;;;4943617;28;20042;-70
2022/05/15 08:35:03;;;;;;;3.35;2.50;;;;;;;;;;4941816;28;20031;-69
2022/05/15 08:37:30;;;;;;;3.60;2.60;;;;;;;;;;4943699;28;20067;-70
2022/05/15 08:40:01;;;;;;;5.70;3.08;;;;;;;;;;4949910;28;20039;-70
2022/05/15 08:43:01;;;;;;;5.50;2.38;;;;;;;;;;4948937;28;20043;-70
2022/05/15 08:45:38;;;;;;;5.20;2.30;;;;;;;;;;4950350;28;20118;-70
2022/05/15 08:48:12;;;;;;;3.42;2.40;;;;;;;;;;4943867;28;20039;-69
2022/05/15 08:50:52;;;;;;;7.78;2.47;;;;;;;;;;4940156;28;20114;-69
2022/05/15 08:53:27;;;;;;;6.03;2.20;;;;;;;;;;4927281;28;20031;-69
2022/05/15 08:55:57;;;;;;;4.03;2.70;;;;;;;;;;4941659;28;20146;-69
2022/05/15 08:58:51;;;;;;;7.45;2.53;;;;;;;;;;4940787;28;20043;-69
2022/05/15 09:01:21;;;;;;;7.20;2.83;;;;;;;;;;4944873;28;20043;-69
2022/05/15 09:03:48;;;;;;;7.63;2.53;;;;;;;;;;4944630;28;20043;-66
2022/05/15 09:06:23;;;;;;;3.75;2.50;;;;;;;;;;4945523;28;20039;-67
2022/05/15 09:09:10;;;;;;;13.07;2.85;;;;;;;;;;4945070;28;20031;-68
2022/05/15 09:11:50;;;;;;;6.45;2.70;;;;;;;;;;4951156;28;20031;-68
2022/05/15 09:14:45;;;;;;;5.35;2.50;;;;;;;;;;4945620;28;20031;-67
2022/05/15 09:17:45;;;;;;;6.00;2.60;;;;;;;;;;4953878;28;20101;-70
2022/05/15 09:20:31;;;;;;;7.35;2.40;;;;;;;;;;4951857;28;20063;-69
2022/05/15 09:23:06;;;;;;;5.70;2.13;;;;;;;;;;4949609;28;20397;-68
2022/05/15 09:25:36;;;;;;;3.10;2.15;;;;;;;;;;4951932;28;20043;-70
2022/05/15 09:28:12;;;;;;;4.13;2.00;;;;;;;;;;4943982;28;20027;-68
2022/05/15 09:30:49;;;;;;;2.05;1.88;;;;;;;;;;4946491;28;20039;-68
2022/05/15 09:33:35;;;;;;;5.30;2.00;;;;;;;;;;4952355;28;20128;-70
2022/05/15 09:36:26;;;;;;;6.18;2.03;;;;;;;;;;4946963;28;20069;-67
2022/05/15 09:39:13;;;;;;;6.30;2.03;;;;;;;;;;4951299;28;20125;-68
2022/05/15 09:44:35;;;;;;;4.22;2.25;;;;;;;;;;4944004;28;20043;-70
2022/05/15 09:47:52;;;;;;;3.95;1.80;;;;;;;;;;4953150;28;20034;-68
2022/05/15 09:50:42;;;;;;;4.25;1.90;;;;;;;;;;4925237;28;20421;-67
2022/05/15 09:53:11;;;;;;;3.60;2.00;;;;;;;;;;4947218;28;20462;-67
2022/05/15 09:55:36;;;;;;;7.40;2.13;;;;;;;;;;4948196;28;20031;-67
2022/05/15 09:58:17;;;;;;;6.00;1.83;;;;;;;;;;4948844;28;20042;-69
2022/05/15 10:00:42;;;;;;;5.40;2.08;;;;;;;;;;4949477;28;20062;-69
2022/05/15 10:03:32;;;;;;;3.85;1.92;;;;;;;;;;4946381;28;20537;-67
2022/05/15 10:06:06;;;;;;;5.50;1.90;;;;;;;;;;4941984;28;20121;-67
2022/05/15 10:08:32;;;;;;;5.63;1.90;;;;;;;;;;4948105;28;20074;-67
2022/05/15 10:11:16;;;;;;;2.17;1.90;;;;;;;;;;4944684;28;20031;-67
2022/05/15 10:13:50;;;;;;;3.63;1.90;;;;;;;;;;4943587;28;20046;-67
2022/05/15 10:16:23;;;;;;;4.93;1.83;;;;;;;;;;4947338;28;20050;-68
2022/05/15 10:19:02;;;;;;;4.82;1.98;;;;;;;;;;4943357;28;20667;-69
2022/05/15 10:21:37;;;;;;;4.70;2.15;;;;;;;;;;4944281;28;20122;-66
2022/05/15 10:24:08;;;;;;;3.55;2.05;;;;;;;;;;4951243;28;20118;-68
2022/05/15 10:26:58;;;;;;;4.20;2.00;;;;;;;;;;4944066;28;20039;-67
2022/05/15 10:29:38;;;;;;;3.25;1.80;;;;;;;;;;4943368;28;20043;-70
2022/05/15 10:32:11;;;;;;;2.90;1.67;;;;;;;;;;4945388;28;20039;-69
2022/05/15 10:34:37;;;;;;;5.00;2.00;;;;;;;;;;4952768;28;20031;-67
2022/05/15 10:37:20;;;;;;;2.80;1.90;;;;;;;;;;4951354;28;20046;-68
2022/05/15 10:40:03;;;;;;;5.35;1.98;;;;;;;;;;4953542;28;20528;-67
2022/05/15 10:42:42;;;;;;;7.22;1.73;;;;;;;;;;4948630;28;20599;-67
2022/05/15 10:45:29;;;;;;;4.68;1.77;;;;;;;;;;4944656;28;20031;-67
2022/05/15 10:48:21;;;;;;;3.55;1.70;;;;;;;;;;4948055;28;20111;-69
2022/05/15 10:50:55;;;;;;;4.13;2.13;;;;;;;;;;4943315;28;20158;-67
2022/05/15 10:59:46;;;;;;;5.00;2.10;;;;;;;;;;4946178;28;20071;-72
2022/05/15 11:02:17;;;;;;;2.53;1.80;;;;;;;;;;4954062;28;20039;-67
2022/05/15 11:05:03;;;;;;;;;;;;;;;;;;4943641;28;20090;-68
2022/05/15 11:07:49;;;;;;;3.47;1.80;;;;;;;;;;4942981;28;19925;-69
2022/05/15 11:10:46;;;;;;;4.13;1.98;;;;;;;;;;4949801;28;20046;-69
2022/05/15 11:13:47;;;;;;;3.53;2.10;;;;;;;;;;4920809;28;20427;-71
2022/05/15 11:16:31;;;;;;;3.22;1.90;;;;;;;;;;4942820;28;20070;-68
2022/05/15 11:19:28;;;;;;;6.03;2.03;;;;;;;;;;4948906;28;20231;-67
2022/05/15 11:21:57;;;;;;;4.00;2.20;;;;;;;;;;4923119;28;20105;-68
2022/05/15 11:24:34;;;;;;;5.40;2.10;;;;;;;;;;4950664;28;20456;-70
2022/05/15 11:27:27;;;;;;;5.70;2.50;;;;;;;;;;4951018;28;20887;-68
2022/05/15 11:29:56;;;;;;;5.90;2.38;;;;;;;;;;4950522;28;20103;-68
2022/05/15 11:32:39;;;;;;;3.90;2.10;;;;;;;;;;4948662;28;20057;-70
2022/05/15 11:35:16;;;;;;;5.00;2.22;;;;;;;;;;4952468;28;20131;-68
2022/05/15 11:37:55;;;;;;;6.07;2.10;;;;;;;;;;4943895;28;20027;-68
2022/05/15 11:40:36;;;;;;;8.95;3.40;;;;;;;;;;4945688;28;20031;-67
2022/05/15 11:43:26;;;;;;;3.90;2.20;;;;;;;;;;4947035;28;20069;-71
2022/05/15 11:46:12;;;;;;;3.03;2.17;;;;;;;;;;4944348;28;20050;-69
2022/05/15 11:48:37;;;;;;;4.50;2.40;;;;;;;;;;4953035;28;20803;-68
2022/05/15 11:51:25;;;;;;;3.60;2.15;;;;;;;;;;4932133;28;20046;-71
2022/05/15 11:53:59;;;;;;;4.97;2.17;;;;;;;;;;4944990;28;20034;-70
2022/05/15 11:56:29;;;;;;;6.35;2.08;;;;;;;;;;4942142;28;20050;-71
2022/05/15 11:59:01;;;;;;;2.75;1.95;;;;;;;;;;4942630;28;20050;-68
2022/05/15 12:01:35;;;;;;;11.00;2.60;;;;;;;;;;4947521;28;20051;-68
2022/05/15 12:04:04;;;;;;;4.43;2.08;;;;;;;;;;4942036;28;20460;-71
2022/05/15 12:06:52;;;;;;;5.25;1.98;;;;;;;;;;4944917;28;20037;-68
2022/05/15 12:09:19;;;;;;;10.52;2.13;;;;;;;;;;4914824;28;20053;-68
2022/05/15 12:11:49;;;;;;;5.05;2.25;;;;;;;;;;4925667;28;20507;-68
2022/05/15 12:14:27;;;;;;;2.78;2.25;;;;;;;;;;4948756;28;20042;-68
2022/05/15 12:17:03;;;;;;;4.82;1.88;;;;;;;;;;4943694;28;20137;-72
2022/05/15 12:19:38;;;;;;;7.75;2.50;;;;;;;;;;4942635;28;20452;-67
2022/05/15 12:22:08;;;;;;;7.13;2.08;;;;;;;;;;4942975;28;20047;-68
2022/05/15 12:24:37;;;;;;;3.60;2.10;;;;;;;;;;4942057;28;20042;-69
2022/05/15 12:27:24;;;;;;;3.35;2.25;;;;;;;;;;4942215;28;20480;-68
2022/05/15 12:30:02;;;;;;;5.65;3.15;;;;;;;;;;4943189;28;20047;-69
2022/05/15 12:32:41;;;;;;;4.65;1.95;;;;;;;;;;4948458;28;20039;-69
2022/05/15 12:35:34;;;;;;;4.82;2.10;;;;;;;;;;4943555;28;20494;-68
2022/05/15 12:38:05;;;;;;;5.35;2.45;;;;;;;;;;4938009;28;20075;-69
2022/05/15 12:40:40;;;;;;;2.92;1.98;;;;;;;;;;4928792;28;20416;-68
2022/05/15 12:43:28;;;;;;;2.33;1.85;;;;;;;;;;4947132;28;20473;-69
2022/05/15 12:45:54;;;;;;;2.40;1.80;;;;;;;;;;4948058;28;20035;-70
2022/05/15 12:48:20;;;;;;;2.63;1.80;;;;;;;;;;4945264;28;20476;-67
2022/05/15 12:50:48;;;;;;;6.85;1.92;;;;;;;;;;4954703;28;20074;-68
2022/05/15 12:53:20;;;;;;;7.82;2.03;;;;;;;;;;4946531;28;20039;-69
2022/05/15 12:55:46;;;;;;;5.32;2.20;;;;;;;;;;4945736;28;20035;-68
2022/05/15 12:58:12;;;;;;;2.33;1.85;;;;;;;;;;4945457;28;20038;-69
2022/05/15 13:00:42;;;;;;;5.78;2.10;;;;;;;;;;4945977;28;20034;-69
2022/05/15 13:03:12;;;;;;;4.45;1.80;;;;;;;;;;4953744;28;20035;-71
2022/05/15 13:05:48;;;;;;;6.38;1.67;;;;;;;;;;4928911;28;20497;-70
2022/05/15 13:08:14;;;;;;;4.10;1.80;;;;;;;;;;4959460;28;20057;-67
2022/05/15 13:10:44;;;;;;;4.43;1.50;;;;;;;;;;4948311;28;20061;-68
2022/05/15 13:13:22;;;;;;;4.97;1.80;;;;;;;;;;4945761;28;20276;-67
2022/05/15 13:15:50;;;;;;;3.17;2.08;;;;;;;;;;4946397;28;20046;-70
2022/05/15 13:18:36;;;;;;;1.60;1.50;;;;;;;;;;4949681;28;20045;-70
2022/05/15 13:21:05;;;;;;;4.65;1.98;;;;;;;;;;4952866;28;20042;-69
2022/05/15 13:23:35;;;;;;;5.30;1.95;;;;;;;;;;4943123;28;20055;-70
2022/05/15 13:26:03;;;;;;;3.38;1.92;;;;;;;;;;4946820;28;20075;-68
2022/05/15 13:28:31;;;;;;;3.20;1.80;;;;;;;;;;4950798;28;20039;-69
2022/05/15 13:30:57;;;;;;;5.90;1.75;;;;;;;;;;4934639;28;20030;-69
2022/05/15 13:33:26;;;;;;;2.97;1.67;;;;;;;;;;4952849;28;20110;-68
2022/05/15 13:35:55;;;;;;;2.30;1.65;;;;;;;;;;4953762;28;20118;-68
2022/05/15 13:38:23;;;;;;;3.28;2.00;;;;;;;;;;4952193;28;21438;-69
2022/05/15 13:43:39;;;;;;;4.70;1.70;;;;;;;;;;4949352;28;20050;-69
2022/05/15 13:46:09;;;;;;;2.13;1.75;;;;;;;;;;4951100;28;20093;-69
2022/05/15 13:48:51;;;;;;;2.53;1.58;;;;;;;;;;4947091;28;20059;-71
2022/05/15 13:51:32;;;;;;;3.80;1.70;;;;;;;;;;4950409;28;20507;-72
2022/05/15 13:54:14;;;;;;;3.33;1.73;;;;;;;;;;4951886;28;20125;-68
2022/05/15 13:56:42;;;;;;;6.22;1.40;;;;;;;;;;4949200;28;20086;-68
2022/05/15 13:59:28;;;;;;;6.10;1.75;;;;;;;;;;4946687;28;20043;-70
2022/05/15 14:02:27;;;;;;;5.30;1.88;;;;;;;;;;4948277;28;20035;-71
2022/05/15 14:04:59;;;;;;;4.97;2.08;;;;;;;;;;4883629;28;20051;-69
2022/05/15 14:07:29;;;;;;;2.08;1.70;;;;;;;;;;4946725;28;20042;-69
2022/05/15 14:09:57;;;;;;;4.57;1.75;;;;;;;;;;4943260;28;20134;-69
2022/05/15 14:12:41;;;;;;;4.45;1.35;;;;;;;;;;4946503;28;20045;-69
2022/05/15 14:15:07;;;;;;;2.35;1.42;;;;;;;;;;4951728;28;20031;-69
2022/05/15 14:17:51;;;;;;;2.03;1.40;;;;;;;;;;4951421;28;20043;-70
2022/05/15 14:20:25;;;;;;;5.47;1.75;;;;;;;;;;4945561;28;20050;-69
2022/05/15 14:22:51;;;;;;;2.13;1.60;;;;;;;;;;4950126;28;20065;-69
2022/05/15 14:25:17;;;;;;;4.40;1.60;;;;;;;;;;4933990;28;20106;-70
2022/05/15 14:27:43;;;;;;;4.75;1.45;;;;;;;;;;4949090;28;20782;-71
2022/05/15 14:30:09;;;;;;;3.03;1.40;;;;;;;;;;4918061;28;20046;-69
2022/05/15 14:32:35;;;;;;;3.50;1.65;;;;;;;;;;4930790;28;20042;-69
2022/05/15 14:35:06;;;;;;;3.70;1.40;;;;;;;;;;4950679;28;20914;-71
2022/05/15 14:37:31;;;;;;;3.15;1.60;;;;;;;;;;4949518;28;20034;-71
2022/05/15 14:39:57;;;;;;;1.80;1.30;;;;;;;;;;4950709;28;20391;-68
2022/05/15 14:42:22;;;;;;;3.85;1.55;;;;;;;;;;4948841;28;20070;-68
2022/05/15 14:44:49;;;;;;;4.63;1.70;;;;;;;;;;4950453;28;20047;-71
2022/05/15 14:47:19;;;;;;;4.30;2.20;;;;;;;;;;4949780;28;20050;-72
2022/05/15 14:49:52;;;;;;;4.15;1.60;;;;;;;;;;4951775;28;20480;-71
2022/05/15 14:52:23;;;;;;;2.38;1.60;;;;;;;;;;4948381;28;20031;-69
2022/05/15 14:54:49;;;;;;;4.22;1.55;;;;;;;;;;4945153;28;20086;-70
2022/05/15 14:57:15;;;;;;;7.07;1.75;;;;;;;;;;4943731;28;20043;-69
2022/05/15 14:59:42;;;;;;;1.58;1.20;;;;;;;;;;4943336;28;20046;-70
2022/05/15 15:02:09;;;;;;;3.38;1.60;;;;;;;;;;4945028;28;20797;-68
2022/05/15 15:04:35;;;;;;;3.83;2.53;;;;;;;;;;4943524;28;20035;-69
2022/05/15 15:07:02;;;;;;;2.72;1.33;;;;;;;;;;4943991;28;20039;-69
2022/05/15 15:09:28;;;;;;;4.20;1.35;;;;;;;;;;4943183;28;20038;-69
2022/05/15 15:11:55;;;;;;;2.85;1.40;;;;;;;;;;4944216;28;20054;-70
2022/05/15 15:14:22;;;;;;;3.78;1.40;;;;;;;;;;4945279;28;20046;-70
2022/05/15 15:16:50;;;;;;;2.30;1.30;;;;;;;;;;4948246;28;20053;-69
2022/05/15 15:19:19;;;;;;;4.07;1.23;;;;;;;;;;4943415;28;20121;-70
2022/05/15 15:21:45;;;;;;;3.50;1.40;;;;;;;;;;4944059;28;21046;-68
2022/05/15 15:24:12;;;;;;;3.42;1.27;;;;;;;;;;4942638;28;20559;-68
2022/05/15 15:26:38;;;;;;;1.83;1.40;;;;;;;;;;4942952;28;20130;-69
2022/05/15 15:29:04;;;;;;;1.70;1.38;;;;;;;;;;4943201;28;20106;-70
2022/05/15 15:31:32;;;;;;;4.63;1.30;;;;;;;;;;4945399;28;20117;-70